Time;durP1;ratioP1;P1;durP2;ratioP2;P2;SDS_P1;SDS_P2;PMS_P1;PMS_P2;Temp;Humidity;BMP_temperature;BMP_pressure;BME280_temperature;BME280_humidity;BME280_pressure;Samples;Min_cycle;Max_cycle;Signal;HPM_P1;HPM_P2
2023/01/27 00:00:56;;;;;;;15.13;2.70;;;;;;;3.67;95.13;102454.22;4995198;28;20031;-79
2023/01/27 00:03:23;;;;;;;15.73;2.60;;;;;;;3.61;94.75;102446.16;5013130;28;20404;-79
2023/01/27 00:05:49;;;;;;;10.15;2.70;;;;;;;3.61;95.23;102443.53;5002085;28;20122;-79
2023/01/27 00:08:15;;;;;;;22.08;3.15;;;;;;;3.62;94.79;102450.56;4995278;28;20022;-79
2023/01/27 00:10:40;;;;;;;11.02;2.58;;;;;;;3.62;94.94;102447.94;5000765;28;20038;-79
2023/01/27 00:15:50;;;;;;;17.33;2.97;;;;;;;3.57;94.78;102450.41;4994987;28;20044;-79
2023/01/27 00:18:15;;;;;;;17.65;3.35;;;;;;;3.57;94.95;102457.41;5046670;28;20038;-79
2023/01/27 00:26:13;;;;;;;22.92;3.97;;;;;;;3.48;94.85;102452.72;4998371;28;20129;-79
2023/01/27 00:28:42;;;;;;;17.35;3.70;;;;;;;3.49;95.29;102456.22;5018870;28;20022;-79
2023/01/27 00:33:55;;;;;;;15.18;3.53;;;;;;;3.44;94.41;102449.13;5035806;28;20477;-79
2023/01/27 00:36:21;;;;;;;11.82;3.17;;;;;;;3.45;94.42;102458.75;5010911;28;20053;-78
2023/01/27 00:38:47;;;;;;;14.65;3.35;;;;;;;3.40;94.20;102451.59;5001246;28;20033;-79
2023/01/27 00:41:20;;;;;;;13.32;2.80;;;;;;;3.37;94.41;102452.38;4980216;28;20120;-79
2023/01/27 00:43:49;;;;;;;15.23;2.75;;;;;;;3.36;94.33;102453.22;5001379;28;20057;-78
2023/01/27 00:46:16;;;;;;;12.50;2.75;;;;;;;3.35;94.09;102461.91;4996176;28;20030;-78
2023/01/27 00:48:42;;;;;;;16.08;3.20;;;;;;;3.33;94.86;102460.97;5000151;28;20041;-78
2023/01/27 00:51:08;;;;;;;13.82;2.97;;;;;;;3.32;94.99;102460.94;5029048;28;20369;-79
2023/01/27 00:53:34;;;;;;;14.75;3.38;;;;;;;3.31;94.56;102456.50;4998767;28;20033;-79
2023/01/27 00:56:03;;;;;;;8.50;2.95;;;;;;;3.30;94.45;102467.84;5003841;28;20372;-79
2023/01/27 00:58:29;;;;;;;17.27;3.40;;;;;;;3.26;94.06;102469.44;4996483;28;20045;-78
2023/01/27 01:00:58;;;;;;;13.75;2.72;;;;;;;3.26;94.86;102466.81;4996054;28;20044;-79
2023/01/27 01:03:24;;;;;;;13.52;3.22;;;;;;;3.23;94.47;102466.72;5031107;28;20042;-79
2023/01/27 01:05:50;;;;;;;17.50;4.43;;;;;;;3.23;94.79;102465.00;5005620;28;20040;-79
2023/01/27 01:08:16;;;;;;;13.32;3.15;;;;;;;3.23;95.11;102459.75;5005240;28;20038;-79
2023/01/27 01:10:42;;;;;;;10.68;3.15;;;;;;;3.24;95.50;102463.28;5013513;28;20033;-79
2023/01/27 01:13:10;;;;;;;16.35;3.92;;;;;;;3.20;95.54;102464.91;5006672;28;20166;-79
2023/01/27 01:15:38;;;;;;;13.43;3.05;;;;;;;3.15;95.26;102462.97;5005595;28;20073;-79
2023/01/27 01:18:05;;;;;;;15.32;3.75;;;;;;;3.17;95.37;102472.66;5008880;28;20102;-78
2023/01/27 01:20:36;;;;;;;14.73;3.22;;;;;;;3.17;95.91;102475.28;5025370;28;20125;-79
2023/01/27 01:23:02;;;;;;;13.27;4.00;;;;;;;3.18;95.69;102473.53;5010233;28;20120;-79
2023/01/27 01:25:27;;;;;;;12.93;2.97;;;;;;;3.15;95.28;102479.56;5022370;28;20116;-79
2023/01/27 01:27:55;;;;;;;12.77;2.97;;;;;;;3.15;95.51;102482.16;5012784;28;20077;-79
2023/01/27 01:30:20;;;;;;;10.88;2.97;;;;;;;3.12;95.80;102479.47;5033309;28;20038;-79
2023/01/27 01:32:46;;;;;;;11.50;3.20;;;;;;;3.13;95.89;102477.72;4992873;28;20069;-80
2023/01/27 01:35:13;;;;;;;12.15;3.53;;;;;;;3.13;95.56;102477.72;5013128;28;20041;-79
2023/01/27 01:37:39;;;;;;;11.30;3.38;;;;;;;3.12;95.61;102482.06;5013502;28;20084;-79
2023/01/27 01:40:05;;;;;;;11.10;3.50;;;;;;;3.12;95.87;102492.53;4992147;28;20030;-79
2023/01/27 01:42:49;;;;;;;13.93;3.45;;;;;;;3.12;95.71;102495.16;5004078;28;20042;-79
2023/01/27 01:45:30;;;;;;;14.10;3.55;;;;;;;3.11;96.35;102489.84;5027891;28;20026;-79
2023/01/27 01:48:03;;;;;;;15.50;3.67;;;;;;;3.09;95.45;102486.28;5013436;28;20428;-80
2023/01/27 01:50:31;;;;;;;9.10;3.03;;;;;;;3.08;95.22;102492.38;5011789;28;20038;-79
2023/01/27 01:52:59;;;;;;;10.25;3.45;;;;;;;3.08;95.31;102489.75;5044668;28;20042;-79
2023/01/27 01:55:27;;;;;;;9.88;3.22;;;;;;;3.04;95.75;102482.63;5044382;28;20084;-80
2023/01/27 01:57:52;;;;;;;12.60;3.72;;;;;;;3.06;95.79;102486.19;5000502;28;20026;-79
2023/01/27 02:00:18;;;;;;;10.88;3.35;;;;;;;3.09;95.39;102489.81;5025168;28;20034;-78
2023/01/27 02:02:46;;;;;;;13.38;3.17;;;;;;;3.09;95.87;102494.16;5002340;28;20042;-79
2023/01/27 02:05:24;;;;;;;10.43;3.40;;;;;;;3.07;95.28;102488.88;5005523;28;20030;-79
2023/01/27 02:08:10;;;;;;;9.27;3.67;;;;;;;3.09;96.09;102491.53;5034013;28;20036;-79
2023/01/27 02:10:36;;;;;;;15.15;4.07;;;;;;;3.05;95.21;102492.28;5011357;28;20053;-79
2023/01/27 02:13:02;;;;;;;9.73;3.05;;;;;;;3.05;95.56;102493.16;4994444;28;20061;-79
2023/01/27 02:15:29;;;;;;;11.45;3.33;;;;;;;3.04;95.43;102491.34;5036488;28;20046;-79
2023/01/27 02:17:55;;;;;;;14.02;3.80;;;;;;;3.03;95.81;102491.31;4998808;28;20026;-79
2023/01/27 02:20:28;;;;;;;12.85;4.10;;;;;;;3.02;96.02;102490.44;5002610;28;20038;-79
2023/01/27 02:23:18;;;;;;;13.88;3.55;;;;;;;3.00;95.52;102498.22;5025080;28;20385;-79
2023/01/27 02:25:46;;;;;;;8.60;3.28;;;;;;;3.00;96.20;102495.59;5030288;28;20088;-79
2023/01/27 02:28:12;;;;;;;15.80;3.85;;;;;;;2.99;96.34;102498.16;5012323;28;20029;-79
2023/01/27 02:30:37;;;;;;;14.93;4.30;;;;;;;2.99;96.12;102506.00;4992889;28;20045;-80
2023/01/27 02:33:10;;;;;;;16.40;3.90;;;;;;;2.95;95.31;102493.66;5009507;28;20465;-79
2023/01/27 02:35:41;;;;;;;13.75;4.18;;;;;;;2.91;95.65;102504.84;5044841;28;20074;-79
2023/01/27 02:38:08;;;;;;;;;;;;;;;3.00;95.91;102511.31;5032459;28;20038;-79
2023/01/27 02:40:35;;;;;;;8.77;3.63;;;;;;;2.94;96.30;102510.19;5015284;28;20360;-79
2023/01/27 02:43:03;;;;;;;10.65;4.00;;;;;;;2.91;96.08;102516.19;4980499;28;20050;-80
2023/01/27 02:45:29;;;;;;;10.32;4.00;;;;;;;2.89;96.22;102509.13;5009474;28;20073;-79
2023/01/27 02:47:54;;;;;;;15.85;6.25;;;;;;;2.89;95.68;102512.63;5008764;28;20037;-79
2023/01/27 02:50:20;;;;;;;11.32;4.50;;;;;;;2.87;95.62;102514.34;5000967;28;20392;-79
2023/01/27 02:52:49;;;;;;;14.57;4.57;;;;;;;2.86;96.13;102522.13;4998693;28;20045;-79
2023/01/27 02:55:15;;;;;;;9.30;3.90;;;;;;;2.85;96.29;102517.72;5011522;28;20375;-80
2023/01/27 02:57:40;;;;;;;19.85;5.35;;;;;;;2.83;96.12;102519.41;5031280;28;20036;-80
2023/01/27 03:00:23;;;;;;;12.45;4.60;;;;;;;2.79;95.81;102514.06;4999475;28;20033;-80
2023/01/27 03:02:48;;;;;;;15.93;4.88;;;;;;;2.81;96.01;102521.94;4999307;28;20044;-79
2023/01/27 03:05:14;;;;;;;11.82;4.93;;;;;;;2.80;95.95;102523.69;5017374;28;20282;-79
2023/01/27 03:07:40;;;;;;;17.70;6.00;;;;;;;2.79;96.28;102521.00;5033301;28;20065;-79
2023/01/27 03:10:07;;;;;;;9.32;4.90;;;;;;;2.79;95.80;102526.22;5021325;28;20029;-79
2023/01/27 03:12:33;;;;;;;13.40;5.50;;;;;;;2.79;95.66;102524.53;5024673;28;20400;-80
2023/01/27 03:20:27;;;;;;;17.33;5.35;;;;;;;2.76;95.94;102527.00;5027397;28;20081;-79
2023/01/27 03:22:52;;;;;;;13.85;5.45;;;;;;;2.76;96.33;102528.72;5011876;28;20061;-80
2023/01/27 03:25:20;;;;;;;14.73;5.95;;;;;;;2.72;96.25;102525.13;5012283;28;20053;-78
2023/01/27 03:27:46;;;;;;;13.07;5.93;;;;;;;2.75;96.61;102526.97;4998181;28;20061;-79
2023/01/27 03:30:24;;;;;;;11.80;5.40;;;;;;;2.76;96.56;102539.19;4996527;28;20045;-79
2023/01/27 03:33:04;;;;;;;13.90;6.68;;;;;;;2.77;97.40;102541.00;4993259;28;20046;-79
2023/01/27 03:46:48;;;;;;;16.58;6.72;;;;;;;2.74;98.15;102541.75;5017331;28;20173;-79
2023/01/27 03:49:13;;;;;;;19.17;6.68;;;;;;;2.78;97.53;102553.22;5027393;28;20105;-79
2023/01/27 03:51:39;;;;;;;18.63;7.18;;;;;;;2.77;97.74;102554.06;4994521;28;20046;-79
2023/01/27 03:54:04;;;;;;;16.40;6.78;;;;;;;2.75;98.09;102553.13;5010162;28;20657;-80
2023/01/27 03:56:30;;;;;;;18.30;6.90;;;;;;;2.71;98.63;102551.22;5000997;28;20044;-80
2023/01/27 03:58:56;;;;;;;18.02;7.57;;;;;;;2.75;98.91;102564.47;4993629;28;20029;-80
2023/01/27 04:01:23;;;;;;;15.10;7.30;;;;;;;2.73;99.18;102560.03;5027019;28;20076;-79
2023/01/27 04:06:57;;;;;;;17.80;8.50;;;;;;;2.76;99.14;102562.75;5002869;28;20033;-80
2023/01/27 04:09:40;;;;;;;17.92;8.40;;;;;;;2.77;99.04;102561.94;4994703;28;20065;-80
2023/01/27 04:12:06;;;;;;;18.50;8.25;;;;;;;2.74;99.23;102552.19;4999049;28;20057;-81
2023/01/27 04:14:37;;;;;;;13.95;8.18;;;;;;;2.74;99.57;102552.19;5026202;28;20466;-79
2023/01/27 04:17:14;;;;;;;20.30;8.60;;;;;;;2.75;99.62;102559.25;5011434;28;20030;-79
2023/01/27 04:19:40;;;;;;;18.75;8.48;;;;;;;2.73;99.67;102552.16;5008486;28;20030;-80
2023/01/27 04:22:05;;;;;;;20.60;9.30;;;;;;;2.69;99.97;102545.03;5006551;28;20048;-80
2023/01/27 04:24:31;;;;;;;22.00;8.90;;;;;;;2.73;99.54;102563.50;5008085;28;20044;-80
2023/01/27 04:26:59;;;;;;;17.73;8.75;;;;;;;2.71;99.97;102548.59;5010123;28;20546;-80
2023/01/27 04:29:27;;;;;;;21.02;8.93;;;;;;;2.73;100.00;102549.56;4983466;28;20057;-81
2023/01/27 04:31:53;;;;;;;19.08;9.00;;;;;;;2.70;99.96;102547.72;4999742;28;20073;-80
2023/01/27 04:34:19;;;;;;;21.60;10.38;;;;;;;2.71;100.00;102561.69;4998973;28;20038;-80
2023/01/27 04:36:46;;;;;;;15.85;9.30;;;;;;;2.70;99.68;102563.41;4996991;28;20097;-80
2023/01/27 04:39:12;;;;;;;20.05;9.68;;;;;;;2.69;100.00;102564.22;5030750;28;20032;-80
2023/01/27 04:41:38;;;;;;;20.27;9.45;;;;;;;2.69;99.69;102563.34;4997210;28;20034;-80
2023/01/27 04:44:05;;;;;;;15.93;9.77;;;;;;;2.68;100.00;102570.31;5018086;28;20497;-80
2023/01/27 04:46:32;;;;;;;20.35;9.68;;;;;;;2.64;100.00;102559.66;4993896;28;20117;-80
2023/01/27 04:48:58;;;;;;;18.95;10.02;;;;;;;2.68;100.00;102577.25;4995464;28;20038;-81
2023/01/27 04:51:24;;;;;;;19.85;10.70;;;;;;;2.67;100.00;102580.69;4996322;28;20068;-81
2023/01/27 04:53:49;;;;;;;21.73;10.90;;;;;;;2.64;100.00;102571.00;4994305;28;20038;-80
2023/01/27 04:56:30;;;;;;;19.88;10.68;;;;;;;2.66;100.00;102581.53;4996347;28;20037;-80
2023/01/27 04:59:00;;;;;;;19.40;12.02;;;;;;;2.65;100.00;102585.00;4993293;28;20427;-80
2023/01/27 05:01:27;;;;;;;16.90;10.65;;;;;;;2.64;100.00;102586.69;4999319;28;20037;-81
2023/01/27 05:03:53;;;;;;;17.73;10.23;;;;;;;2.61;100.00;102577.84;4993546;28;20121;-80
2023/01/27 05:06:18;;;;;;;23.05;10.38;;;;;;;2.63;100.00;102576.19;4998750;28;20117;-80
2023/01/27 05:08:44;;;;;;;17.05;10.82;;;;;;;2.63;100.00;102581.44;4998716;28;20034;-80
2023/01/27 05:11:10;;;;;;;16.30;9.80;;;;;;;2.63;99.63;102582.31;4999804;28;20125;-82
2023/01/27 05:13:36;;;;;;;14.95;10.25;;;;;;;2.63;99.23;102584.03;4992174;28;20469;-80
2023/01/27 05:16:10;;;;;;;18.02;10.00;;;;;;;2.64;99.25;102586.69;4991550;28;20026;-80
2023/01/27 05:18:36;;;;;;;14.02;8.73;;;;;;;2.62;98.94;102583.16;4997874;28;20053;-80
2023/01/27 05:21:04;;;;;;;15.23;9.07;;;;;;;2.65;98.02;102582.38;5000662;28;20421;-81
2023/01/27 05:23:35;;;;;;;13.73;9.35;;;;;;;2.58;98.05;102584.75;5012107;28;20562;-80
2023/01/27 05:26:03;;;;;;;13.73;9.13;;;;;;;2.64;97.48;102594.53;5006220;28;20109;-81
2023/01/27 05:28:29;;;;;;;14.50;9.15;;;;;;;2.66;97.02;102595.50;5004568;28;20561;-80
2023/01/27 05:31:21;;;;;;;16.90;9.52;;;;;;;2.65;97.53;102583.28;5025331;28;20117;-80
2023/01/27 05:33:48;;;;;;;14.55;9.07;;;;;;;2.69;97.55;102595.63;4996159;28;20042;-80
2023/01/27 05:36:16;;;;;;;12.40;8.90;;;;;;;2.69;96.57;102600.84;4997386;28;20556;-80
2023/01/27 05:38:42;;;;;;;12.00;9.32;;;;;;;2.67;96.74;102594.69;4997544;28;20034;-80
2023/01/27 05:41:10;;;;;;;14.40;8.18;;;;;;;2.73;96.39;102609.72;4997180;28;20054;-82
2023/01/27 05:43:37;;;;;;;11.10;8.07;;;;;;;2.73;96.22;102602.75;4997253;28;20022;-81
2023/01/27 05:46:07;;;;;;;14.75;8.32;;;;;;;2.75;95.36;102608.06;4993702;28;20030;-82
2023/01/27 05:48:35;;;;;;;12.82;8.50;;;;;;;2.75;96.03;102611.56;4995720;28;20117;-81
2023/01/27 05:51:00;;;;;;;14.00;8.15;;;;;;;2.76;95.70;102615.06;4994754;28;20497;-81
2023/01/27 05:53:26;;;;;;;10.90;8.35;;;;;;;2.75;96.29;102605.44;4993734;28;20062;-81
2023/01/27 05:55:51;;;;;;;12.38;8.10;;;;;;;2.76;96.45;102615.94;4993908;28;20037;-80
2023/01/27 05:58:17;;;;;;;10.32;8.02;;;;;;;2.72;96.28;102605.31;4995666;28;20138;-82
2023/01/27 06:00:43;;;;;;;15.15;9.13;;;;;;;2.70;95.83;102596.53;4998591;28;20049;-80
2023/01/27 06:03:09;;;;;;;13.18;8.48;;;;;;;2.76;95.75;102617.69;5025462;28;20030;-80
2023/01/27 06:05:35;;;;;;;14.23;8.32;;;;;;;2.77;95.64;102617.75;4993403;28;20461;-80
2023/01/27 06:08:04;;;;;;;12.32;8.30;;;;;;;2.77;95.87;102614.25;5001422;28;20157;-81
2023/01/27 06:10:30;;;;;;;11.82;8.98;;;;;;;2.78;95.84;102616.03;4992271;28;20474;-81
2023/01/27 06:12:57;;;;;;;12.85;9.00;;;;;;;2.78;96.39;102613.41;4993709;28;20029;-81
2023/01/27 06:15:23;;;;;;;14.70;8.35;;;;;;;2.82;95.72;102620.56;4992611;28;20077;-81
2023/01/27 06:17:48;;;;;;;12.57;8.15;;;;;;;2.79;96.02;102609.94;4992607;28;20389;-81
2023/01/27 06:20:14;;;;;;;11.30;8.18;;;;;;;2.82;95.86;102628.41;5026682;28;20088;-80
2023/01/27 06:22:43;;;;;;;13.77;8.07;;;;;;;2.79;96.02;102630.88;4992397;28;20030;-80
2023/01/27 06:25:08;;;;;;;10.88;7.85;;;;;;;2.82;95.97;102632.72;5007704;28;20453;-81
2023/01/27 06:27:34;;;;;;;12.43;7.75;;;;;;;2.82;95.48;102632.72;4991377;28;20073;-80
2023/01/27 06:29:59;;;;;;;12.02;7.88;;;;;;;2.82;96.06;102636.25;5004861;28;20030;-80
2023/01/27 06:32:25;;;;;;;12.60;7.80;;;;;;;2.84;95.86;102631.06;5033036;28;20064;-80
2023/01/27 06:34:50;;;;;;;11.57;8.57;;;;;;;2.81;95.46;102634.44;5032221;28;20154;-80
2023/01/27 06:37:15;;;;;;;13.27;7.80;;;;;;;2.84;96.33;102631.06;5012783;28;20034;-80
2023/01/27 06:39:41;;;;;;;11.02;7.60;;;;;;;2.87;95.08;102636.41;5006615;28;20034;-81
2023/01/27 06:42:08;;;;;;;8.95;6.25;;;;;;;2.84;95.17;102626.72;5017123;28;20037;-81
2023/01/27 06:44:34;;;;;;;10.40;6.95;;;;;;;2.83;95.17;102629.28;5018482;28;20030;-81
2023/01/27 06:47:02;;;;;;;9.30;6.45;;;;;;;2.86;94.66;102630.28;5003686;28;20037;-81
2023/01/27 06:49:27;;;;;;;8.85;5.68;;;;;;;2.85;95.24;102632.84;5006210;28;20033;-80
2023/01/27 06:51:53;;;;;;;9.30;5.60;;;;;;;2.86;94.32;102638.13;5013065;28;20406;-81
2023/01/27 06:54:18;;;;;;;7.20;5.70;;;;;;;2.87;94.37;102639.94;5008664;28;20018;-81
2023/01/27 06:56:44;;;;;;;8.32;5.70;;;;;;;2.85;94.57;102638.97;4994760;28;20049;-81
2023/01/27 06:59:09;;;;;;;8.98;5.80;;;;;;;2.88;94.31;102646.94;5009882;28;20432;-80
2023/01/27 07:01:35;;;;;;;9.20;5.78;;;;;;;2.90;94.24;102649.63;5012018;28;20045;-81
2023/01/27 07:04:00;;;;;;;7.00;5.45;;;;;;;2.91;93.75;102648.78;5006272;28;20050;-80
2023/01/27 07:06:26;;;;;;;7.25;5.45;;;;;;;2.89;94.23;102640.84;5008204;28;20064;-80
2023/01/27 07:08:51;;;;;;;6.53;5.43;;;;;;;2.89;94.33;102645.22;4991450;28;20048;-80
2023/01/27 07:11:17;;;;;;;7.28;5.68;;;;;;;2.89;94.07;102643.47;5025443;28;20070;-80
2023/01/27 07:13:42;;;;;;;8.32;5.15;;;;;;;2.92;93.60;102643.63;4991076;28;20042;-80
2023/01/27 07:16:08;;;;;;;6.55;4.60;;;;;;;2.92;93.21;102641.00;5005912;28;20393;-80
2023/01/27 07:18:33;;;;;;;8.02;4.88;;;;;;;2.87;93.59;102637.31;5011968;28;20037;-80
2023/01/27 07:20:59;;;;;;;5.82;4.68;;;;;;;2.91;93.42;102644.44;5011684;28;20034;-80
2023/01/27 07:23:24;;;;;;;6.45;4.88;;;;;;;2.93;92.98;102645.38;5040618;28;20038;-80
2023/01/27 07:25:50;;;;;;;7.53;4.97;;;;;;;2.94;93.24;102648.88;5002632;28;20045;-80
2023/01/27 07:28:15;;;;;;;6.82;5.07;;;;;;;2.93;93.60;102645.38;5011710;28;20113;-80
2023/01/27 07:30:42;;;;;;;6.50;4.60;;;;;;;2.95;92.96;102650.69;5011093;28;20022;-79
2023/01/27 07:33:11;;;;;;;7.75;4.95;;;;;;;2.94;93.35;102647.19;4997415;28;20058;-79
2023/01/27 07:35:38;;;;;;;6.93;4.80;;;;;;;2.96;93.49;102655.97;5009911;28;20113;-79
2023/01/27 07:38:05;;;;;;;7.45;4.78;;;;;;;2.95;93.67;102656.81;4998002;28;20037;-80
2023/01/27 07:40:31;;;;;;;8.52;5.07;;;;;;;2.95;93.71;102659.44;5011569;28;20035;-79
2023/01/27 07:43:00;;;;;;;8.00;4.63;;;;;;;2.96;93.60;102662.94;5026973;28;20503;-80
2023/01/27 07:45:27;;;;;;;5.35;4.55;;;;;;;2.99;93.61;102670.88;4996760;28;20019;-79
2023/01/27 07:47:58;;;;;;;5.68;4.57;;;;;;;2.95;93.09;102662.03;4998462;28;20084;-79
2023/01/27 07:50:23;;;;;;;6.73;4.47;;;;;;;3.00;92.90;102670.06;5002921;28;20529;-80
2023/01/27 07:52:49;;;;;;;10.27;4.88;;;;;;;2.99;93.25;102666.56;4996785;28;20058;-79
2023/01/27 07:55:14;;;;;;;6.88;4.75;;;;;;;2.98;92.94;102672.63;4994068;28;20061;-80
2023/01/27 07:57:40;;;;;;;6.90;4.85;;;;;;;2.97;92.70;102667.34;4993872;28;20121;-79
2023/01/27 08:00:06;;;;;;;7.38;4.60;;;;;;;3.02;92.82;102673.66;5009681;28;20076;-80
2023/01/27 08:02:37;;;;;;;6.78;5.00;;;;;;;3.00;93.16;102670.97;5000975;28;20057;-80
2023/01/27 08:05:03;;;;;;;7.35;4.80;;;;;;;3.03;93.06;102666.69;5000897;28;20042;-79
2023/01/27 08:07:29;;;;;;;8.65;4.45;;;;;;;3.03;92.66;102670.19;4995767;28;20030;-80
2023/01/27 08:09:56;;;;;;;9.30;4.75;;;;;;;3.04;92.60;102671.06;5013253;28;20191;-80
2023/01/27 08:12:21;;;;;;;10.57;7.00;;;;;;;3.03;93.57;102675.41;5004278;28;20038;-80
2023/01/27 08:14:47;;;;;;;7.82;5.93;;;;;;;3.04;93.03;102671.97;4994099;28;20489;-80
2023/01/27 08:17:12;;;;;;;13.45;4.85;;;;;;;3.03;92.81;102669.31;5010180;28;20413;-80
2023/01/27 08:19:38;;;;;;;6.30;4.70;;;;;;;3.06;92.66;102685.13;5008872;28;20033;-79
2023/01/27 08:22:03;;;;;;;8.32;5.13;;;;;;;3.06;93.14;102680.78;5013918;28;20123;-79
2023/01/27 08:24:29;;;;;;;6.85;4.47;;;;;;;3.08;93.37;102683.47;5012250;28;20056;-80
2023/01/27 08:26:55;;;;;;;7.35;4.57;;;;;;;3.09;93.19;102685.22;5007400;28;20029;-80
2023/01/27 08:29:20;;;;;;;7.63;4.32;;;;;;;3.09;92.77;102694.00;4993669;28;20030;-80
2023/01/27 08:31:46;;;;;;;4.93;3.92;;;;;;;3.08;92.89;102694.81;5030140;28;20029;-79
2023/01/27 08:34:11;;;;;;;6.65;4.50;;;;;;;3.11;93.07;102689.69;4977344;28;20054;-79
2023/01/27 08:36:41;;;;;;;5.78;4.38;;;;;;;3.09;93.29;102691.38;4970719;28;20042;-80
2023/01/27 08:39:08;;;;;;;6.30;4.57;;;;;;;3.13;92.81;102693.25;4987013;28;20108;-80
2023/01/27 08:41:33;;;;;;;6.65;4.07;;;;;;;3.14;92.80;102694.16;4985976;28;20493;-80
2023/01/27 08:43:59;;;;;;;5.22;4.20;;;;;;;3.12;92.79;102694.09;4983692;28;20073;-80
2023/01/27 08:46:25;;;;;;;5.45;4.38;;;;;;;3.14;92.29;102702.00;4966733;28;20193;-80
2023/01/27 08:48:51;;;;;;;6.60;4.18;;;;;;;3.12;92.82;102708.94;4972088;28;20062;-80
2023/01/27 08:51:17;;;;;;;6.60;4.10;;;;;;;3.14;92.93;102712.47;4988685;28;20128;-79
2023/01/27 08:53:42;;;;;;;6.40;3.95;;;;;;;3.14;92.07;102713.38;4988216;28;20031;-80
2023/01/27 08:56:11;;;;;;;5.43;3.70;;;;;;;3.13;92.10;102708.97;4973904;28;20049;-80
2023/01/27 08:58:37;;;;;;;5.82;3.90;;;;;;;3.12;92.79;102724.63;4992952;28;20514;-80
2023/01/27 09:01:05;;;;;;;4.68;3.78;;;;;;;3.13;92.37;102724.69;4985019;28;20042;-80
2023/01/27 09:03:32;;;;;;;5.57;3.90;;;;;;;3.14;92.69;102731.72;4992704;28;20030;-80
2023/01/27 09:05:58;;;;;;;6.00;3.80;;;;;;;3.12;91.87;102733.38;4985362;28;20026;-80
2023/01/27 09:08:24;;;;;;;4.43;3.30;;;;;;;3.13;91.61;102731.66;4985843;28;20397;-80
2023/01/27 09:10:51;;;;;;;5.55;3.88;;;;;;;3.13;92.12;102740.38;4980080;28;20053;-80
2023/01/27 09:13:17;;;;;;;7.22;4.07;;;;;;;3.12;91.76;102729.88;4993022;28;20117;-80
2023/01/27 09:15:42;;;;;;;5.68;4.07;;;;;;;3.14;91.37;102734.34;4985894;28;20248;-80
2023/01/27 09:18:09;;;;;;;5.57;3.70;;;;;;;3.16;91.61;102734.38;4993649;28;20038;-79
2023/01/27 09:20:36;;;;;;;4.65;3.88;;;;;;;3.17;92.03;102733.56;4993874;28;20030;-79
2023/01/27 09:23:03;;;;;;;7.93;3.92;;;;;;;3.17;91.41;102738.78;4982054;28;20057;-79
2023/01/27 09:25:29;;;;;;;4.32;3.55;;;;;;;3.17;91.45;102738.78;4989861;28;20377;-79
2023/01/27 09:27:59;;;;;;;4.75;3.63;;;;;;;3.18;91.08;102743.19;4971849;28;20026;-80
2023/01/27 09:30:25;;;;;;;5.18;3.47;;;;;;;3.14;91.01;102738.66;4974947;28;20077;-79
2023/01/27 09:32:52;;;;;;;5.82;3.58;;;;;;;3.23;90.84;102746.88;4993699;28;20062;-80
2023/01/27 09:35:18;;;;;;;4.70;3.60;;;;;;;3.26;91.59;102746.97;5025096;28;20529;-80
2023/01/27 09:37:51;;;;;;;4.97;3.42;;;;;;;3.32;91.32;102743.72;5002162;28;20045;-80
2023/01/27 09:40:39;;;;;;;4.57;3.40;;;;;;;3.37;89.90;102750.03;5012598;28;20029;-80
2023/01/27 09:43:04;;;;;;;5.25;3.60;;;;;;;3.42;90.56;102762.47;5034194;28;20119;-80
2023/01/27 09:46:04;;;;;;;4.38;3.15;;;;;;;3.41;90.02;102754.53;5005690;28;20057;-80
2023/01/27 09:48:43;;;;;;;6.57;4.35;;;;;;;3.43;88.99;102750.25;5008666;28;20478;-80
2023/01/27 09:51:18;;;;;;;6.15;4.53;;;;;;;3.47;89.87;102761.75;5000048;28;20129;-80
2023/01/27 09:54:07;;;;;;;6.43;4.20;;;;;;;3.48;89.70;102763.53;4999369;28;20034;-79
2023/01/27 09:56:49;;;;;;;5.53;3.78;;;;;;;3.48;90.15;102763.53;5004914;28;20092;-80
2023/01/27 09:59:31;;;;;;;5.65;3.83;;;;;;;3.44;89.98;102767.78;5007021;28;20034;-80
2023/01/27 10:02:21;;;;;;;5.90;3.80;;;;;;;3.44;90.05;102775.63;5024446;28;20446;-79
2023/01/27 10:04:59;;;;;;;4.30;3.10;;;;;;;3.39;89.52;102771.94;5004676;28;20365;-80
2023/01/27 10:07:46;;;;;;;4.03;3.63;;;;;;;3.41;89.94;102780.72;5008802;28;20046;-80
2023/01/27 10:10:26;;;;;;;5.00;3.75;;;;;;;3.39;90.44;102761.47;5010319;28;20509;-80
2023/01/27 10:13:09;;;;;;;3.92;3.17;;;;;;;3.42;89.39;102769.44;4994709;28;20038;-81
2023/01/27 10:15:38;;;;;;;4.25;3.40;;;;;;;3.40;89.64;102766.75;5012327;28;20032;-80
2023/01/27 10:18:19;;;;;;;6.95;4.35;;;;;;;3.41;90.35;102767.63;5027266;28;20042;-80
2023/01/27 10:20:50;;;;;;;5.37;3.67;;;;;;;3.42;89.47;102761.56;5009024;28;20057;-80
2023/01/27 10:23:19;;;;;;;5.07;3.42;;;;;;;3.48;89.95;102766.16;5023743;28;20285;-80
2023/01/27 10:26:13;;;;;;;5.07;3.38;;;;;;;3.51;90.10;102759.31;5031772;28;20034;-80
2023/01/27 10:28:47;;;;;;;5.43;4.05;;;;;;;3.60;89.90;102750.91;4995406;28;20045;-80
2023/01/27 10:31:41;;;;;;;5.13;3.72;;;;;;;3.74;90.10;102754.94;5000718;28;20030;-81
2023/01/27 10:34:22;;;;;;;8.00;4.25;;;;;;;3.87;90.48;102748.41;5012378;28;20069;-80
2023/01/27 10:37:03;;;;;;;4.82;3.58;;;;;;;3.92;88.47;102748.56;5012153;28;20034;-80
2023/01/27 10:39:45;;;;;;;5.78;3.90;;;;;;;3.97;88.54;102760.13;4993538;28;20545;-81
2023/01/27 10:42:18;;;;;;;5.78;3.92;;;;;;;3.99;88.39;102754.09;5020371;28;20037;-81
2023/01/27 10:45:14;;;;;;;5.47;3.95;;;;;;;4.04;88.56;102754.25;5029991;28;20527;-80
2023/01/27 10:47:52;;;;;;;4.55;3.50;;;;;;;4.10;89.12;102757.06;5013678;28;20068;-80
2023/01/27 10:50:24;;;;;;;5.30;4.05;;;;;;;4.09;88.83;102745.69;5012485;28;20037;-80
2023/01/27 10:52:58;;;;;;;4.47;3.55;;;;;;;4.17;88.39;102750.34;5011804;28;20061;-80
2023/01/27 10:55:35;;;;;;;5.35;4.00;;;;;;;4.14;87.41;102739.75;5012370;28;20041;-80
2023/01/27 10:58:30;;;;;;;7.18;4.57;;;;;;;4.19;87.91;102743.41;4994015;28;20038;-80
2023/01/27 11:00:56;;;;;;;8.57;4.85;;;;;;;4.20;87.71;102748.69;5010697;28;20048;-80
2023/01/27 11:03:37;;;;;;;5.55;3.90;;;;;;;4.20;87.36;102747.81;5007053;28;20030;-80
2023/01/27 11:06:08;;;;;;;5.53;3.92;;;;;;;4.18;87.46;102747.78;5009783;28;20037;-80
2023/01/27 11:08:37;;;;;;;7.10;4.35;;;;;;;4.15;87.56;102747.63;5006105;28;20173;-81
2023/01/27 11:14:09;;;;;;;7.82;4.68;;;;;;;4.01;87.34;102744.56;5007399;28;20042;-80
2023/01/27 11:16:37;;;;;;;5.97;3.80;;;;;;;3.99;87.51;102745.34;5003276;28;20397;-80
2023/01/27 11:19:15;;;;;;;6.10;3.80;;;;;;;3.94;87.00;102757.38;5013142;28;20374;-80
2023/01/27 11:21:41;;;;;;;5.10;3.80;;;;;;;3.89;86.92;102741.50;5017069;28;20113;-80
2023/01/27 11:24:23;;;;;;;4.10;3.45;;;;;;;3.82;87.18;102727.25;5017594;28;20034;-81
2023/01/27 11:26:57;;;;;;;6.57;4.25;;;;;;;3.84;87.43;102750.91;4999124;28;20037;-81
2023/01/27 11:29:35;;;;;;;4.18;3.72;;;;;;;3.80;87.17;102739.41;5009430;28;20077;-80
2023/01/27 11:32:18;;;;;;;8.82;3.90;;;;;;;3.80;88.03;102741.16;5008736;28;20054;-80
2023/01/27 11:35:01;;;;;;;5.70;4.10;;;;;;;3.84;89.02;102738.69;5014455;28;20378;-81
2023/01/27 11:37:37;;;;;;;5.55;4.22;;;;;;;3.84;88.11;102735.19;5047210;28;20037;-80
2023/01/27 11:40:12;;;;;;;7.95;4.63;;;;;;;3.88;87.96;102740.59;5014203;28;20116;-81
2023/01/27 11:42:38;;;;;;;5.00;4.20;;;;;;;3.88;88.02;102734.44;5014887;28;20037;-81
2023/01/27 11:45:04;;;;;;;6.47;4.50;;;;;;;3.87;87.56;102744.03;5005891;28;20041;-80
2023/01/27 11:47:35;;;;;;;4.88;4.22;;;;;;;3.88;88.37;102740.59;5026639;28;20515;-80
2023/01/27 11:50:03;;;;;;;;;;;;;;;3.93;88.48;102737.22;5026936;28;20036;-81
2023/01/27 11:52:30;;;;;;;5.53;3.83;;;;;;;3.91;88.22;102737.19;5005080;28;20380;-81
2023/01/27 11:55:05;;;;;;;5.03;4.20;;;;;;;3.89;87.84;102728.38;5006436;28;20026;-81
2023/01/27 11:57:32;;;;;;;6.72;4.28;;;;;;;3.88;87.04;102727.50;5026838;28;20030;-81
2023/01/27 12:00:00;;;;;;;5.22;4.15;;;;;;;3.90;87.38;102726.66;5010064;28;20117;-81
2023/01/27 12:02:35;;;;;;;6.45;4.38;;;;;;;3.87;87.58;102728.31;5001647;28;20046;-80
2023/01/27 12:05:07;;;;;;;9.13;4.75;;;;;;;3.90;87.54;102734.50;5003950;28;20038;-81
2023/01/27 12:07:49;;;;;;;5.38;4.50;;;;;;;3.83;88.10;102722.91;5029226;28;20070;-81
2023/01/27 12:10:28;;;;;;;5.15;4.43;;;;;;;3.90;88.03;102727.53;5008725;28;20117;-80
2023/01/27 12:12:55;;;;;;;5.22;4.40;;;;;;;3.94;88.20;102725.94;5029502;28;20061;-80